Suttons Bay, MI (49682)

2:53 PM EDT on August 04, 2015 (GMT -0400)
South Shore Drive | | Change Station
CLOSE
Current Station
Personal Weather Station
Location: Suttons Bay, MI
Elevation: 597 ft
Nearby Weather Stations

Elev 597 ft 44.97 °N, 85.64 °W | Updated 4 seconds ago

Mostly Cloudy
Mostly Cloudy
68.8 °F
Feels Like 68.8 °F
N
7.0
Wind Variable Wind from WNW
Gusts 8.0 mph

Today
High -- | Low -- °F
--% Chance of Precip.
Yesterday
High -- | Low -- °F
Precip. -- in
6:31 AM 9:05 PM
Waning Gibbous, 75% visible
Pressure 29.90 in
Visibility 10.0 miles
Clouds Few 3300 ft
Mostly Cloudy 7500 ft
Mostly Cloudy 9500 ft
Dew Point 59 °F
Humidity 72%
Rainfall 0.00 in
Snow Depth Not available.
UV 5 out of 12
Pollen 6.30 out of 12
Air Quality Not available.
Flu Activity Not available.
METAR KTVC 041753Z 01008KT 10SM FEW033 BKN075 BKN095 21/13 A2990 RMK AO2 SLP124 T02110133 10217 20172 50004

More Conditions Fewer Conditions

Pressure 29.90 in
Visibility 10.0 miles
Clouds Few 3300 ft
Mostly Cloudy 7500 ft
Mostly Cloudy 9500 ft
Dew Point 59 °F
Humidity 72%
Rainfall 0.00 in
Snow Depth Not available.
UV 5 out of 12
Pollen 6.30 out of 12
Air Quality Not available.
Flu Activity Not available.
METAR KTVC 041753Z 01008KT 10SM FEW033 BKN075 BKN095 21/13 A2990 RMK AO2 SLP124 T02110133 10217 20172 50004

More Conditions Fewer Conditions

Nowcast | as of 1:00 PM EDT on August 4, 2015

At 2 PM...partly cloudy. Scattered showers. Temperature 67. Northwest winds 12 mph. At 4 PM...partly cloudy. Scattered showers. Temperature 67. Northwest winds 11 mph. At 6 PM...partly cloudy. Scattered showers. Temperature 67. Northwest winds 11 mph. At 8 PM...partly cloudy. Temperature 65. North winds 10 mph.

×

10-Day Weather Forecast

×

Almanac

Astronomy

Aug. 04, 2015 Rise Set
Actual Time
Civil Twilight
Nautical Twilight
Astronomical Twilight
Moon
Length of Visible Light
Length of Day
Tomorrow will be .
, % of the Moon is Illuminated

Today's Extremes

State Highs State Lows

Community

WunderPhotos

Upload Photos

1,843,937 photos uploaded!

WunderBlogs® & News

Nearby

Air Quality

  Air Quality AQ Index Pollutant
Not available.

Snow Depth

Station Depth Elevation

Earthquake Activity

City Distance Mag. Time & Date
Minimum magnitude displayed is 2.5.

Coastal Water Temperatures

Place Temperature

Stations

Nearby Weather Stations

Station Location Temp. Windchill Dew Point Humidity Wind Precip. Elev Updated Type